| time (UTC) | temp C | wind direction | speed KPH | gust KPH | rain 1hr cm | rain 24hr cm | rain mn cm | humidity % | barometer mb |
| 20260509234539 | 16 | 249 | 4.8 | 12.9 | 0.00 | 0.53 | 0.03 | 86 | 1006.3 |
| 20260509233519 | 17 | 226 | 8.0 | 20.9 | 0.00 | 0.53 | 0.03 | 81 | 1006.3 |
| 20260509232519 | 17 | 248 | 6.4 | 14.5 | 0.00 | 0.53 | 0.03 | 80 | 1006.3 |
| 20260509231519 | 16 | 187 | 6.4 | 19.3 | 0.00 | 0.53 | 0.03 | 80 | 1006.4 |
| 20260509230519 | 16 | 188 | 4.8 | 12.9 | 0.00 | 0.53 | 0.03 | 83 | 1006.4 |
| 20260509225519 | 16 | 209 | 4.8 | 11.3 | 0.00 | 0.53 | 0.03 | 83 | 1006.4 |
| 20260509224517 | 17 | 214 | 4.8 | 12.9 | 0.00 | 0.53 | 0.03 | 77 | 1006.4 |
| 20260509223518 | 17 | 211 | 3.2 | 8.0 | 0.00 | 0.53 | 0.03 | 79 | 1006.1 |
| 20260509222520 | 17 | 184 | 4.8 | 11.3 | 0.00 | 0.53 | 0.03 | 79 | 1006.2 |
| 20260509221519 | 16 | 185 | 3.2 | 11.3 | 0.00 | 0.53 | 0.03 | 82 | 1006.1 |
| 20260509220520 | 16 | 185 | 3.2 | 9.7 | 0.00 | 0.58 | 0.03 | 85 | 1006.0 |
| 20260509215517 | 16 | 173 | 3.2 | 8.0 | 0.00 | 0.61 | 0.03 | 81 | 1006.0 |
| 20260509214518 | 16 | 197 | 1.6 | 9.7 | 0.00 | 0.61 | 0.03 | 83 | 1006.0 |
| 20260509213517 | 16 | 168 | 1.6 | 8.0 | 0.00 | 0.69 | 0.03 | 84 | 1006.1 |
| 20260509212517 | 15 | 191 | 4.8 | 12.9 | 0.00 | 0.69 | 0.03 | 86 | 1005.9 |
| 20260509211518 | 15 | 239 | 1.6 | 4.8 | 0.00 | 0.69 | 0.03 | 88 | 1005.9 |
| 20260509210518 | 15 | 194 | 3.2 | 8.0 | 0.00 | 0.69 | 0.03 | 89 | 1006.0 |
| 20260509205518 | 14 | 248 | 3.2 | 6.4 | 0.00 | 0.69 | 0.03 | 90 | 1005.9 |
| 20260509204518 | 14 | 215 | 4.8 | 11.3 | 0.00 | 0.69 | 0.03 | 91 | 1005.9 |
| 20260509203538 | 13 | 224 | 3.2 | 9.7 | 0.00 | 0.69 | 0.03 | 91 | 1005.8 |
| 20260509202521 | 13 | 240 | 3.2 | 6.4 | 0.00 | 0.69 | 0.03 | 91 | 1005.7 |
| 20260509201519 | 13 | 222 | 3.2 | 9.7 | 0.00 | 0.69 | 0.00 | 92 | 1005.5 |
| 20260509200521 | 13 | 225 | 1.6 | 4.8 | 0.00 | 0.69 | 0.00 | 93 | 1005.4 |
| 20260509195522 | 12 | 229 | 3.2 | 6.4 | 0.00 | 0.69 | 0.00 | 93 | 1005.5 |
| 20260509194521 | 12 | 0.0 | 0.0 | 0.00 | 0.69 | 0.00 | 93 | 1005.3 | |
| 20260509193521 | 12 | 267 | 0.0 | 1.6 | 0.00 | 0.69 | 0.00 | 93 | 1005.2 |
| 20260509192542 | 12 | 278 | 0.0 | 3.2 | 0.00 | 0.69 | 0.00 | 92 | 1005.1 |
| 20260509191521 | 12 | 255 | 1.6 | 4.8 | 0.00 | 0.69 | 0.00 | 92 | 1005.0 |
| 20260509190542 | 12 | 277 | 1.6 | 3.2 | 0.00 | 0.69 | 0.00 | 92 | 1005.0 |
| 20260509185523 | 12 | 227 | 1.6 | 4.8 | 0.00 | 0.69 | 0.00 | 93 | 1005.1 |
| 20260509184519 | 12 | 225 | 3.2 | 11.3 | 0.00 | 0.69 | 0.00 | 93 | 1005.0 |
| 20260509183542 | 12 | 263 | 1.6 | 4.8 | 0.00 | 0.69 | 0.00 | 93 | 1005.1 |
| 20260509182522 | 12 | 244 | 1.6 | 4.8 | 0.00 | 0.69 | 0.00 | 93 | 1005.0 |
| 20260509181522 | 12 | 252 | 1.6 | 3.2 | 0.00 | 0.69 | 0.00 | 93 | 1005.1 |
| 20260509180521 | 12 | 231 | 1.6 | 6.4 | 0.00 | 0.69 | 0.00 | 93 | 1005.0 |
| 20260509175522 | 12 | 195 | 1.6 | 4.8 | 0.00 | 0.69 | 0.00 | 94 | 1004.8 |
| 20260509174522 | 11 | 245 | 1.6 | 4.8 | 0.00 | 0.71 | 0.00 | 94 | 1004.6 |
| 20260509173522 | 11 | 211 | 0.0 | 3.2 | 0.00 | 0.71 | 0.00 | 95 | 1004.5 |
| 20260509172523 | 11 | 203 | 1.6 | 3.2 | 0.00 | 0.71 | 0.00 | 95 | 1004.5 |
| 20260509171523 | 11 | 221 | 1.6 | 4.8 | 0.00 | 0.71 | 0.00 | 96 | 1004.5 |
| 20260509170523 | 11 | 242 | 0.0 | 3.2 | 0.00 | 0.71 | 0.00 | 96 | 1004.4 |
| 20260509165523 | 11 | 237 | 0.0 | 4.8 | 0.00 | 0.71 | 0.00 | 96 | 1004.3 |
| 20260509164523 | 11 | 209 | 0.0 | 4.8 | 0.00 | 0.71 | 0.00 | 96 | 1004.3 |
| 20260509163523 | 11 | 231 | 0.0 | 1.6 | 0.00 | 0.71 | 0.00 | 96 | 1004.3 |
| 20260509162603 | 11 | 148 | 1.6 | 6.4 | 0.00 | 0.71 | 0.00 | 96 | 1004.3 |
| 20260509161524 | 11 | 0.0 | 0.0 | 0.00 | 0.71 | 0.00 | 96 | 1004.3 | |
| 20260509160523 | 11 | 0.0 | 0.0 | 0.00 | 0.71 | 0.00 | 96 | 1004.3 | |
| 20260509155524 | 11 | 76 | 0.0 | 1.6 | 0.00 | 0.71 | 0.00 | 96 | 1004.3 |
| 20260509154544 | 11 | 0.0 | 0.0 | 0.00 | 0.71 | 0.00 | 96 | 1004.3 | |
| 20260509153524 | 11 | 283 | 0.0 | 3.2 | 0.00 | 0.71 | 0.00 | 96 | 1004.3 |
| 20260509152524 | 11 | 205 | 0.0 | 1.6 | 0.00 | 0.71 | 0.00 | 96 | 1004.4 |
| 20260509151519 | 11 | 168 | 0.0 | 0.0 | 0.00 | 0.71 | 0.00 | 96 | 1004.4 |
| 20260509150540 | 11 | 225 | 0.0 | 1.6 | 0.00 | 0.71 | 0.00 | 96 | 1004.6 |
| 20260509145518 | 11 | 179 | 0.0 | 1.6 | 0.00 | 0.71 | 0.00 | 95 | 1004.6 |
| 20260509144518 | 11 | 0.0 | 0.0 | 0.00 | 0.71 | 0.00 | 95 | 1004.6 | |
| 20260509143519 | 11 | 0.0 | 0.0 | 0.00 | 0.71 | 0.00 | 95 | 1004.8 | |
| 20260509142539 | 12 | 143 | 0.0 | 1.6 | 0.00 | 0.71 | 0.00 | 95 | 1004.8 |
| 20260509141519 | 12 | 242 | 0.0 | 1.6 | 0.00 | 0.71 | 0.00 | 95 | 1004.8 |
| 20260509140519 | 12 | 185 | 0.0 | 3.2 | 0.00 | 0.71 | 0.00 | 95 | 1004.9 |
| 20260509135519 | 12 | 232 | 1.6 | 4.8 | 0.00 | 0.71 | 0.00 | 95 | 1004.9 |
| 20260509134538 | 13 | 257 | 0.0 | 3.2 | 0.00 | 0.71 | 0.00 | 95 | 1004.8 |
| 20260509133516 | 13 | 0.0 | 0.0 | 0.00 | 0.71 | 0.00 | 95 | 1004.7 | |
| 20260509132516 | 12 | 270 | 0.0 | 1.6 | 0.00 | 0.71 | 0.00 | 95 | 1004.7 |
| 20260509131517 | 12 | 217 | 0.0 | 3.2 | 0.00 | 0.71 | 0.00 | 95 | 1004.6 |
| 20260509130520 | 12 | 230 | 0.0 | 3.2 | 0.00 | 0.71 | 0.00 | 95 | 1004.6 |
| 20260509125520 | 12 | 220 | 0.0 | 1.6 | 0.00 | 0.71 | 0.00 | 95 | 1004.6 |
| 20260509124520 | 13 | 0.0 | 0.0 | 0.00 | 0.74 | 0.00 | 95 | 1004.8 | |
| 20260509123520 | 13 | 155 | 0.0 | 1.6 | 0.00 | 0.74 | 0.00 | 95 | 1004.8 |
| 20260509122541 | 13 | 228 | 0.0 | 1.6 | 0.00 | 0.74 | 0.00 | 95 | 1004.9 |
| 20260509121521 | 13 | 224 | 0.0 | 1.6 | 0.00 | 0.74 | 0.00 | 95 | 1004.9 |
| 20260509120541 | 13 | 112 | 0.0 | 3.2 | 0.00 | 0.74 | 0.00 | 95 | 1005.1 |
| 20260509115519 | 13 | 0.0 | 0.0 | 0.00 | 0.74 | 0.74 | 95 | 1005.2 | |
| 20260509114538 | 13 | 0.0 | 0.0 | 0.08 | 0.76 | 0.74 | 95 | 1005.2 | |
| 20260509113558 | 13 | 0.0 | 0.0 | 0.08 | 0.76 | 0.74 | 95 | 1005.2 | |
| 20260509112542 | 13 | 178 | 0.0 | 1.6 | 0.08 | 0.76 | 0.74 | 94 | 1005.2 |
| 20260509111518 | 13 | 155 | 0.0 | 3.2 | 0.08 | 0.79 | 0.74 | 94 | 1005.2 |
| 20260509110518 | 13 | 311 | 0.0 | 4.8 | 0.08 | 0.89 | 0.74 | 94 | 1005.2 |
| 20260509105520 | 13 | 273 | 1.6 | 4.8 | 0.05 | 0.99 | 0.74 | 94 | 1005.2 |
| 20260509104519 | 13 | 272 | 0.0 | 3.2 | 0.00 | 0.94 | 0.66 | 94 | 1004.9 |
| 20260509103519 | 13 | 287 | 0.0 | 3.2 | 0.00 | 0.94 | 0.66 | 94 | 1004.7 |
| 20260509102519 | 13 | 236 | 0.0 | 1.6 | 0.00 | 0.94 | 0.66 | 94 | 1004.8 |
| 20260509101519 | 13 | 0.0 | 0.0 | 0.00 | 0.94 | 0.66 | 94 | 1004.9 | |
| 20260509100519 | 13 | 169 | 0.0 | 1.6 | 0.00 | 0.94 | 0.66 | 94 | 1004.8 |
| 20260509095519 | 13 | 303 | 0.0 | 1.6 | 0.00 | 0.94 | 0.66 | 93 | 1004.9 |
| 20260509094520 | 13 | 165 | 1.6 | 4.8 | 0.00 | 0.94 | 0.66 | 93 | 1004.7 |
| 20260509093516 | 13 | 218 | 0.0 | 3.2 | 0.00 | 0.94 | 0.66 | 93 | 1004.6 |
| 20260509092518 | 13 | 234 | 1.6 | 4.8 | 0.05 | 0.99 | 0.66 | 93 | 1004.6 |
| 20260509091516 | 13 | 247 | 1.6 | 6.4 | 0.08 | 1.07 | 0.66 | 93 | 1004.8 |
| 20260509090520 | 13 | 270 | 1.6 | 6.4 | 0.08 | 1.09 | 0.66 | 93 | 1005.0 |
| 20260509085520 | 13 | 209 | 0.0 | 3.2 | 0.08 | 1.12 | 0.66 | 92 | 1005.0 |
| 20260509084517 | 13 | 312 | 3.2 | 8.0 | 0.08 | 1.17 | 0.66 | 92 | 1004.9 |
| 20260509083520 | 13 | 289 | 3.2 | 11.3 | 0.05 | 1.19 | 0.66 | 92 | 1005.0 |
| 20260509082520 | 14 | 321 | 6.4 | 11.3 | 0.00 | 1.19 | 0.61 | 93 | 1005.1 |
| 20260509081521 | 14 | 269 | 1.6 | 6.4 | 0.03 | 1.27 | 0.61 | 92 | 1005.1 |
| 20260509080520 | 14 | 305 | 0.0 | 1.6 | 0.05 | 1.37 | 0.61 | 92 | 1005.2 |
| 20260509075518 | 14 | 252 | 0.0 | 3.2 | 0.10 | 1.40 | 0.61 | 92 | 1005.1 |
| 20260509074518 | 14 | 228 | 3.2 | 6.4 | 0.13 | 1.45 | 0.61 | 92 | 1005.1 |
| 20260509073520 | 14 | 216 | 0.0 | 4.8 | 0.13 | 1.55 | 0.61 | 92 | 1004.9 |
| 20260509072521 | 15 | 287 | 3.2 | 6.4 | 0.13 | 1.60 | 0.61 | 92 | 1005.1 |
| 20260509071518 | 15 | 239 | 3.2 | 11.3 | 0.13 | 1.60 | 0.58 | 92 | 1005.0 |
| 20260509070519 | 15 | 225 | 4.8 | 11.3 | 0.10 | 1.57 | 0.53 | 91 | 1004.9 |
| 20260509065518 | 15 | 325 | 3.2 | 8.0 | 0.08 | 1.55 | 0.51 | 91 | 1004.6 |
| 20260509064540 | 15 | 219 | 1.6 | 6.4 | 0.08 | 1.55 | 0.48 | 91 | 1004.7 |
| 20260509063542 | 15 | 214 | 0.0 | 3.2 | 0.05 | 1.52 | 0.46 | 90 | 1004.5 |
| 20260509062519 | 15 | 317 | 1.6 | 3.2 | 0.05 | 1.52 | 0.46 | 90 | 1004.4 |
| 20260509061520 | 15 | 295 | 0.0 | 3.2 | 0.03 | 1.50 | 0.46 | 90 | 1004.3 |
| 20260509060519 | 15 | 236 | 1.6 | 4.8 | 0.05 | 1.52 | 0.43 | 89 | 1004.2 |
| 20260509055540 | 15 | 269 | 1.6 | 3.2 | 0.05 | 1.57 | 0.43 | 89 | 1004.2 |
| 20260509054519 | 15 | 271 | 1.6 | 4.8 | 0.03 | 1.57 | 0.41 | 89 | 1004.3 |
| 20260509053516 | 16 | 239 | 0.0 | 3.2 | 0.03 | 1.60 | 0.41 | 88 | 1004.2 |
| 20260509052516 | 16 | 256 | 3.2 | 8.0 | 0.03 | 1.68 | 0.41 | 88 | 1004.2 |
| 20260509051537 | 16 | 246 | 4.8 | 16.1 | 0.03 | 1.75 | 0.41 | 88 | 1004.2 |
| 20260509050520 | 16 | 282 | 3.2 | 11.3 | 0.00 | 1.73 | 0.38 | 88 | 1004.2 |
| 20260509045520 | 16 | 290 | 3.2 | 8.0 | 0.00 | 1.73 | 0.38 | 88 | 1004.2 |
| 20260509044520 | 16 | 195 | 1.6 | 3.2 | 0.00 | 1.73 | 0.38 | 88 | 1004.2 |
| 20260509043601 | 16 | 245 | 1.6 | 6.4 | 0.00 | 1.73 | 0.38 | 88 | 1004.3 |
| 20260509042520 | 16 | 258 | 1.6 | 8.0 | 0.03 | 1.73 | 0.38 | 87 | 1004.3 |
| 20260509041520 | 17 | 212 | 1.6 | 3.2 | 0.03 | 1.73 | 0.38 | 87 | 1004.3 |
| 20260509040520 | 16 | 0.0 | 0.0 | 0.03 | 1.73 | 0.38 | 86 | 1004.3 | |
| 20260509035521 | 17 | 224 | 0.0 | 3.2 | 0.03 | 1.73 | 0.38 | 85 | 1004.5 |
| 20260509034518 | 17 | 227 | 1.6 | 4.8 | 0.03 | 1.73 | 0.38 | 85 | 1004.8 |
| 20260509033521 | 17 | 267 | 3.2 | 6.4 | 0.03 | 1.73 | 0.38 | 84 | 1004.8 |
| 20260509032521 | 17 | 319 | 3.2 | 9.7 | 0.00 | 1.70 | 0.36 | 83 | 1005.2 |
| 20260509031518 | 17 | 268 | 1.6 | 6.4 | 0.00 | 1.70 | 0.36 | 83 | 1005.1 |
| 20260509030519 | 17 | 242 | 4.8 | 12.9 | 0.00 | 1.70 | 0.36 | 82 | 1005.2 |
| 20260509025518 | 18 | 270 | 4.8 | 12.9 | 0.00 | 1.70 | 0.36 | 81 | 1005.1 |
| 20260509024519 | 18 | 247 | 4.8 | 12.9 | 0.00 | 1.70 | 0.36 | 80 | 1004.9 |
| 20260509023522 | 18 | 285 | 4.8 | 14.5 | 0.00 | 1.70 | 0.36 | 79 | 1005.0 |
| 20260509022542 | 18 | 245 | 3.2 | 12.9 | 0.00 | 1.70 | 0.36 | 80 | 1005.0 |
| 20260509021518 | 18 | 262 | 4.8 | 11.3 | 0.00 | 1.70 | 0.36 | 80 | 1005.0 |
| 20260509020520 | 18 | 240 | 3.2 | 8.0 | 0.00 | 1.70 | 0.36 | 78 | 1005.1 |
| 20260509015519 | 18 | 283 | 3.2 | 9.7 | 0.00 | 1.70 | 0.36 | 78 | 1005.0 |
| 20260509014538 | 18 | 271 | 4.8 | 9.7 | 0.00 | 1.70 | 0.36 | 78 | 1004.9 |
| 20260509013518 | 18 | 253 | 3.2 | 9.7 | 0.00 | 1.70 | 0.36 | 79 | 1004.9 |
| 20260509012517 | 18 | 293 | 3.2 | 9.7 | 0.00 | 1.70 | 0.36 | 79 | 1005.1 |
| 20260509011516 | 18 | 247 | 4.8 | 12.9 | 0.00 | 1.70 | 0.36 | 80 | 1005.2 |
| 20260509010520 | 17 | 303 | 3.2 | 9.7 | 0.13 | 1.70 | 0.36 | 84 | 1005.4 |
| 20260509005518 | 17 | 240 | 3.2 | 11.3 | 0.13 | 1.70 | 0.36 | 86 | 1005.6 |
| 20260509004519 | 16 | 235 | 3.2 | 8.0 | 0.13 | 1.70 | 0.36 | 87 | 1005.9 |
| 20260509003520 | 17 | 266 | 4.8 | 12.9 | 0.13 | 1.70 | 0.36 | 87 | 1006.1 |
| 20260509002520 | 17 | 268 | 4.8 | 11.3 | 0.13 | 1.70 | 0.36 | 88 | 1006.4 |
| 20260509001602 | 18 | 275 | 4.8 | 9.7 | 0.13 | 1.70 | 0.36 | 84 | 1006.7 |
| 20260509000519 | 19 | 254 | 3.2 | 9.7 | 0.00 | 1.55 | 0.23 | 78 | 1006.5 |
| 20260508235518 | 18 | 226 | 3.2 | 8.0 | 0.00 | 1.55 | 0.23 | 80 | 1006.7 |